Time;durP1;ratioP1;P1;durP2;ratioP2;P2;SDS_P1;SDS_P2;PMS_P1;PMS_P2;Temp;Humidity;BMP_temperature;BMP_pressure;BME280_temperature;BME280_humidity;BME280_pressure;Samples;Min_cycle;Max_cycle;Signal;HPM_P1;HPM_P2
2023/06/29 00:01:26;;;;;;;0.10;0.00;;;;;;;18.30;100.00;99909.72;7393918;19;20043;-60
2023/06/29 00:03:52;;;;;;;0.63;0.22;;;;;;;18.01;100.00;99914.06;7396915;19;20028;-61
2023/06/29 00:06:18;;;;;;;1.45;0.35;;;;;;;18.72;100.00;99918.25;7397097;19;20463;-61
2023/06/29 00:08:47;;;;;;;1.10;0.57;;;;;;;18.12;100.00;99920.38;7393269;19;20018;-61
2023/06/29 00:11:13;;;;;;;0.30;0.20;;;;;;;17.72;100.00;99923.25;7393354;19;20019;-61
2023/06/29 00:13:39;;;;;;;0.75;0.30;;;;;;;17.78;100.00;99927.56;7393240;19;20007;-61
2023/06/29 00:16:05;;;;;;;0.52;0.10;;;;;;;17.73;100.00;99925.56;7395581;19;20510;-61
2023/06/29 00:18:33;;;;;;;0.75;0.17;;;;;;;17.58;100.00;99925.16;7392823;19;20018;-61
2023/06/29 00:21:01;;;;;;;0.50;0.32;;;;;;;17.59;100.00;99932.31;7392926;19;20014;-62
2023/06/29 00:23:27;;;;;;;0.68;0.38;;;;;;;17.61;100.00;99935.38;7393099;19;20011;-61
2023/06/29 00:25:55;;;;;;;1.58;0.47;;;;;;;17.61;100.00;99929.75;7395429;19;20039;-61
2023/06/29 00:28:21;;;;;;;0.80;0.28;;;;;;;17.61;100.00;99935.38;7394392;19;20011;-61
2023/06/29 00:30:47;;;;;;;0.47;0.20;;;;;;;17.65;100.00;99935.84;7399816;19;20013;-61
2023/06/29 00:33:14;;;;;;;0.15;0.10;;;;;;;17.37;100.00;99932.41;7399126;19;20010;-61
2023/06/29 00:35:40;;;;;;;4.68;0.32;;;;;;;17.53;100.00;99940.03;7400679;19;20459;-61
2023/06/29 00:38:06;;;;;;;0.63;0.57;;;;;;;17.59;100.00;99932.31;7400245;19;20015;-61
2023/06/29 00:40:32;;;;;;;2.78;0.43;;;;;;;17.57;100.00;99931.31;7400439;19;20010;-61
2023/06/29 00:42:58;;;;;;;0.10;0.08;;;;;;;17.54;100.00;99929.53;7402519;19;20025;-61
2023/06/29 00:45:24;;;;;;;0.63;0.32;;;;;;;17.59;100.00;99920.28;7400323;19;20022;-62
2023/06/29 00:47:51;;;;;;;1.65;0.20;;;;;;;17.54;100.00;99923.91;7400126;19;20025;-62
2023/06/29 00:50:17;;;;;;;0.30;0.30;;;;;;;17.50;100.00;99923.41;7399537;19;20558;-62
2023/06/29 00:52:43;;;;;;;1.90;0.60;;;;;;;17.73;100.00;99919.94;7399298;19;20014;-61
2023/06/29 00:55:10;;;;;;;1.02;0.25;;;;;;;17.77;100.00;99920.41;7399928;19;20022;-62
2023/06/29 00:57:38;;;;;;;0.20;0.10;;;;;;;17.61;100.00;99924.09;7400105;19;20372;-61
2023/06/29 01:00:11;;;;;;;0.63;0.50;;;;;;;18.02;100.00;99919.19;7400468;19;20361;-61
2023/06/29 01:02:40;;;;;;;8.30;0.90;;;;;;;18.21;100.00;99924.16;7398525;19;20015;-62
2023/06/29 01:05:11;;;;;;;4.38;0.65;;;;;;;17.75;100.00;99923.00;7400040;19;20043;-60
2023/06/29 01:07:46;;;;;;;0.85;0.68;;;;;;;17.88;100.00;99916.75;7399148;19;20361;-60
2023/06/29 01:10:14;;;;;;;0.63;0.55;;;;;;;17.97;100.00;99919.25;7395999;19;20014;-61
2023/06/29 01:12:41;;;;;;;1.63;0.85;;;;;;;18.58;100.00;99910.97;7395212;19;20457;-87
2023/06/29 01:15:09;;;;;;;2.65;0.80;;;;;;;17.66;100.00;99926.13;7394925;19;20109;-86
2023/06/29 01:17:38;;;;;;;3.17;1.35;;;;;;;17.43;100.00;99924.72;7392424;19;20346;-87
2023/06/29 01:20:09;;;;;;;4.57;0.32;;;;;;;17.27;100.00;99923.53;7392634;19;20497;-86
2023/06/29 01:22:56;;;;;;;2.10;0.70;;;;;;;17.53;100.00;99923.13;7392802;19;20018;-86
2023/06/29 01:25:24;;;;;;;1.67;0.30;;;;;;;17.56;100.00;99926.97;7395445;19;20026;-85
2023/06/29 01:27:50;;;;;;;0.40;0.20;;;;;;;17.41;100.00;99927.28;7396456;19;20029;-85
2023/06/29 01:30:16;;;;;;;7.30;0.47;;;;;;;17.37;100.00;99932.41;7393423;19;20013;-86
2023/06/29 01:32:43;;;;;;;2.72;0.40;;;;;;;17.73;100.00;99930.44;7394062;19;20021;-87
2023/06/29 01:35:09;;;;;;;1.42;0.47;;;;;;;17.61;100.00;99924.09;7395997;19;20018;-86
2023/06/29 01:37:47;;;;;;;1.65;0.50;;;;;;;17.90;100.00;99923.38;7393453;19;20014;-82
2023/06/29 01:40:17;;;;;;;1.30;0.25;;;;;;;17.82;100.00;99928.03;7390876;19;20469;-83
2023/06/29 01:42:44;;;;;;;1.10;0.40;;;;;;;18.08;100.00;99931.16;7395177;19;20018;-86
2023/06/29 01:45:11;;;;;;;0.55;0.43;;;;;;;17.86;100.00;99928.53;7392682;19;20038;-87
2023/06/29 01:47:38;;;;;;;4.68;0.30;;;;;;;18.07;100.00;99918.38;7395294;19;20066;-85
2023/06/29 01:50:04;;;;;;;1.05;0.57;;;;;;;18.39;100.00;99924.22;7394003;19;20028;-85
2023/06/29 01:52:31;;;;;;;2.85;0.73;;;;;;;18.32;100.00;99915.59;7394735;19;20019;-86
2023/06/29 01:54:57;;;;;;;2.05;0.65;;;;;;;18.58;100.00;99915.88;7393287;19;20014;-85
2023/06/29 01:57:23;;;;;;;14.75;0.90;;;;;;;18.56;100.00;99922.00;7393793;19;20011;-85
2023/06/29 01:59:49;;;;;;;5.95;0.75;;;;;;;18.24;100.00;99917.44;7392330;19;20014;-86
2023/06/29 02:02:15;;;;;;;2.05;0.60;;;;;;;17.96;100.00;99915.66;7392795;19;20006;-86
2023/06/29 02:04:41;;;;;;;1.77;0.25;;;;;;;18.47;100.00;99908.28;7392707;19;20358;-86
2023/06/29 02:07:10;;;;;;;1.65;0.50;;;;;;;19.39;100.00;99906.91;7393619;19;20027;-86
2023/06/29 02:09:36;;;;;;;1.45;0.40;;;;;;;17.98;100.00;99907.44;7392900;19;20040;-85
2023/06/29 02:12:03;;;;;;;6.18;0.82;;;;;;;17.95;100.00;99914.09;7393094;19;20003;-86
2023/06/29 02:14:30;;;;;;;6.55;0.85;;;;;;;17.93;100.00;99910.31;7393185;19;20015;-86
2023/06/29 02:16:56;;;;;;;2.25;1.02;;;;;;;18.03;100.00;99912.25;7391210;19;20021;-87
2023/06/29 02:19:22;;;;;;;3.00;0.55;;;;;;;17.72;100.00;99912.75;7392072;19;20014;-86
2023/06/29 02:21:48;;;;;;;2.47;0.50;;;;;;;17.63;100.00;99907.44;7391623;19;20085;-86
2023/06/29 02:24:14;;;;;;;1.63;0.30;;;;;;;17.77;100.00;99920.41;7391013;19;20022;-86
2023/06/29 02:26:40;;;;;;;3.42;0.77;;;;;;;17.46;100.00;99912.41;7391869;19;20014;-87
2023/06/29 02:29:07;;;;;;;1.90;0.57;;;;;;;17.86;100.00;99910.88;7393615;19;20019;-87
2023/06/29 02:31:33;;;;;;;6.82;1.08;;;;;;;17.61;100.00;99914.88;7391756;19;20007;-86
2023/06/29 02:34:00;;;;;;;1.45;0.95;;;;;;;17.57;100.00;99911.59;7394706;19;20006;-87
2023/06/29 02:36:26;;;;;;;0.45;0.45;;;;;;;17.47;100.00;99913.16;7390911;19;20037;-87
2023/06/29 02:38:52;;;;;;;2.13;0.30;;;;;;;17.41;100.00;99918.84;7392181;19;20010;-87
2023/06/29 02:41:20;;;;;;;5.70;0.43;;;;;;;17.50;100.00;99918.53;7391477;19;20056;-86
2023/06/29 02:43:47;;;;;;;8.27;1.02;;;;;;;17.14;100.00;99919.75;7391798;19;20018;-86
2023/06/29 02:46:13;;;;;;;1.48;0.88;;;;;;;17.23;100.00;99916.63;7392756;19;20021;-86
2023/06/29 02:48:39;;;;;;;2.15;0.30;;;;;;;17.01;100.00;99928.78;7390731;19;20018;-86
2023/06/29 02:51:05;;;;;;;3.78;0.63;;;;;;;17.10;100.00;99913.63;7390620;19;20015;-86
2023/06/29 02:53:32;;;;;;;2.70;0.70;;;;;;;17.30;100.00;99921.72;7391009;19;20090;-86
2023/06/29 02:55:59;;;;;;;1.98;0.82;;;;;;;17.48;100.00;99926.72;7394097;19;20347;-86
2023/06/29 02:58:27;;;;;;;1.17;0.93;;;;;;;18.33;100.00;99914.28;7389438;19;20015;-86
2023/06/29 03:00:53;;;;;;;12.60;1.30;;;;;;;18.15;100.00;99915.72;7389316;19;20070;-87
2023/06/29 03:03:20;;;;;;;5.10;1.00;;;;;;;18.09;100.00;99918.59;7388894;19;20473;-85
2023/06/29 03:05:46;;;;;;;1.35;0.80;;;;;;;18.02;100.00;99924.81;7392111;19;20406;-85
2023/06/29 03:08:12;;;;;;;2.42;0.70;;;;;;;17.93;100.00;99927.22;7390847;19;20038;-85
2023/06/29 03:10:38;;;;;;;2.15;0.95;;;;;;;17.75;100.00;99927.84;7391981;19;20020;-85
2023/06/29 03:13:04;;;;;;;0.98;0.73;;;;;;;17.60;100.00;99922.59;7393334;19;20017;-85
2023/06/29 03:15:30;;;;;;;5.22;1.38;;;;;;;17.68;100.00;99929.19;7393920;19;20043;-85
2023/06/29 03:17:56;;;;;;;1.80;1.00;;;;;;;17.69;100.00;99924.31;7390236;19;20376;-84
2023/06/29 03:20:22;;;;;;;1.50;0.28;;;;;;;19.07;100.00;99914.50;7390627;19;20014;-85
2023/06/29 03:22:48;;;;;;;2.47;0.63;;;;;;;21.08;100.00;99914.22;7389283;19;20365;-85
2023/06/29 03:25:15;;;;;;;1.60;0.60;;;;;;;24.87;100.00;99917.84;7390917;19;20029;-85
2023/06/29 03:27:41;;;;;;;3.45;0.90;;;;;;;25.13;100.00;99917.38;7390133;19;20049;-85
2023/06/29 03:30:07;;;;;;;3.65;0.95;;;;;;;25.12;100.00;99920.81;7392153;19;20029;-85
2023/06/29 03:32:33;;;;;;;3.03;1.25;;;;;;;24.37;100.00;99925.28;7392050;19;20014;-85
2023/06/29 03:34:59;;;;;;;1.05;0.40;;;;;;;19.83;100.00;99930.91;7391534;19;20055;-85
2023/06/29 03:37:25;;;;;;;1.38;0.55;;;;;;;24.60;100.00;99919.59;7390140;19;20018;-85
2023/06/29 03:39:52;;;;;;;0.75;0.75;;;;;;;24.02;100.00;99926.97;7388908;19;20006;-85
2023/06/29 03:42:18;;;;;;;3.22;0.77;;;;;;;20.92;100.00;99929.47;7392857;19;20294;-85
2023/06/29 03:44:44;;;;;;;2.50;0.45;;;;;;;19.75;100.00;99920.75;7390749;19;20082;-85
2023/06/29 03:47:10;;;;;;;1.40;0.63;;;;;;;23.20;100.00;99925.38;7394154;19;20050;-85
2023/06/29 03:49:36;;;;;;;2.53;0.65;;;;;;;23.11;100.00;99925.91;7390547;19;20188;-84
2023/06/29 03:52:02;;;;;;;0.77;0.73;;;;;;;20.00;100.00;99920.09;7389591;19;20022;-85
2023/06/29 03:54:28;;;;;;;0.50;0.30;;;;;;;22.67;100.00;99920.75;7387871;19;20114;-85
2023/06/29 03:56:55;;;;;;;1.67;0.68;;;;;;;24.13;100.00;99916.56;7391391;19;20015;-85
2023/06/29 03:59:21;;;;;;;6.88;0.93;;;;;;;23.97;100.00;99919.34;7389296;19;20362;-85
2023/06/29 04:01:47;;;;;;;1.70;0.60;;;;;;;24.42;100.00;99923.59;7391427;19;20020;-85
2023/06/29 04:04:14;;;;;;;0.43;0.43;;;;;;;24.53;100.00;99923.97;7394594;19;20006;-85
2023/06/29 04:06:40;;;;;;;1.27;0.40;;;;;;;24.69;100.00;99924.69;7398773;19;20014;-85
2023/06/29 04:09:06;;;;;;;1.67;1.38;;;;;;;24.49;100.00;99928.53;7397510;19;20043;-85
2023/06/29 04:11:32;;;;;;;5.30;0.50;;;;;;;24.63;100.00;99924.13;7397761;19;20011;-85
2023/06/29 04:13:58;;;;;;;3.83;1.23;;;;;;;24.85;100.00;99926.19;7398457;19;20558;-85
2023/06/29 04:16:24;;;;;;;0.98;0.98;;;;;;;24.81;100.00;99925.84;7398244;19;20028;-85
2023/06/29 04:18:50;;;;;;;1.88;0.40;;;;;;;24.69;100.00;99925.44;7393860;19;20040;-85
2023/06/29 04:21:16;;;;;;;0.20;0.20;;;;;;;24.52;100.00;99922.44;7393029;19;20015;-84
2023/06/29 04:23:43;;;;;;;5.10;0.52;;;;;;;24.98;100.00;99925.97;7393645;19;20010;-85
2023/06/29 04:26:10;;;;;;;2.67;0.85;;;;;;;25.32;100.00;99934.78;7397252;19;20018;-84
2023/06/29 04:28:36;;;;;;;0.50;0.50;;;;;;;25.38;100.00;99932.47;7395640;19;20057;-85
2023/06/29 04:31:02;;;;;;;1.30;0.20;;;;;;;24.84;100.00;99931.13;7397957;19;20372;-85
2023/06/29 04:33:28;;;;;;;2.08;0.65;;;;;;;25.39;100.00;99931.16;7395854;19;20018;-85
2023/06/29 04:35:55;;;;;;;1.52;0.60;;;;;;;25.29;100.00;99926.63;7395424;19;20018;-85
2023/06/29 04:38:25;;;;;;;2.15;0.57;;;;;;;25.21;100.00;99920.94;7392017;19;20767;-85
2023/06/29 04:41:03;;;;;;;1.55;0.80;;;;;;;25.21;100.00;99920.94;7395246;19;20462;-85
2023/06/29 04:43:33;;;;;;;2.50;0.65;;;;;;;25.15;100.00;99931.81;7393169;19;20014;-85
2023/06/29 04:46:03;;;;;;;0.87;0.60;;;;;;;25.08;100.00;99932.59;7395545;19;20022;-86
2023/06/29 04:48:32;;;;;;;10.50;1.05;;;;;;;25.12;100.00;99932.94;7395650;19;20011;-85
2023/06/29 04:51:02;;;;;;;4.70;0.85;;;;;;;25.67;99.70;99937.88;7397307;19;20022;-85
2023/06/29 04:53:28;;;;;;;5.00;1.25;;;;;;;24.94;100.00;99928.47;7395526;19;20082;-85
2023/06/29 04:55:55;;;;;;;1.20;1.00;;;;;;;24.87;100.00;99934.94;7396117;19;20029;-85
2023/06/29 04:58:21;;;;;;;1.52;0.50;;;;;;;24.60;100.00;99931.72;7395079;19;20015;-85
2023/06/29 05:00:47;;;;;;;4.50;1.05;;;;;;;24.54;100.00;99930.41;7394237;19;20473;-85
2023/06/29 05:03:13;;;;;;;2.50;0.98;;;;;;;24.84;100.00;99938.91;7394029;19;20450;-84
2023/06/29 05:05:39;;;;;;;3.45;0.73;;;;;;;24.83;100.00;99940.25;7395805;19;20022;-85
2023/06/29 05:08:06;;;;;;;0.77;0.40;;;;;;;24.37;100.00;99938.75;7396075;19;20481;-87
2023/06/29 05:10:32;;;;;;;3.40;0.57;;;;;;;24.51;100.00;99938.00;7396574;19;20014;-86
2023/06/29 05:12:58;;;;;;;1.77;0.73;;;;;;;24.62;100.00;99936.84;7395810;19;20014;-83
2023/06/29 05:15:25;;;;;;;1.50;0.50;;;;;;;24.42;100.00;99941.44;7393365;19;20026;-83
2023/06/29 05:17:52;;;;;;;1.25;0.47;;;;;;;24.09;100.00;99937.63;7392875;19;20354;-83
2023/06/29 05:20:18;;;;;;;0.95;0.50;;;;;;;24.13;100.00;99942.94;7391971;19;20022;-84
2023/06/29 05:22:45;;;;;;;3.05;0.60;;;;;;;24.24;100.00;99947.47;7392658;19;20014;-84
2023/06/29 05:25:11;;;;;;;1.35;0.40;;;;;;;24.34;100.00;99945.59;7391329;19;20074;-84
2023/06/29 05:27:38;;;;;;;1.38;0.68;;;;;;;24.14;100.00;99947.31;7394095;19;20494;-84
2023/06/29 05:30:04;;;;;;;0.10;0.10;;;;;;;24.07;100.00;99945.22;7395285;19;20026;-84
2023/06/29 05:32:32;;;;;;;3.08;0.65;;;;;;;24.07;100.00;99948.81;7394475;19;20018;-84
2023/06/29 05:34:59;;;;;;;2.85;0.93;;;;;;;24.08;100.00;99947.47;7394235;19;20029;-84
2023/06/29 05:37:25;;;;;;;2.15;0.55;;;;;;;25.01;99.40;99961.88;7397812;19;20046;-85
2023/06/29 05:39:51;;;;;;;9.82;0.70;;;;;;;24.49;100.00;99946.38;7393902;19;20011;-84
2023/06/29 05:42:17;;;;;;;2.03;0.73;;;;;;;22.51;100.00;99954.66;7392062;19;20417;-82
2023/06/29 05:44:43;;;;;;;2.17;0.40;;;;;;;23.84;100.00;99953.69;7393065;19;20022;-82
2023/06/29 05:47:09;;;;;;;1.35;0.80;;;;;;;24.23;100.00;99954.53;7397512;19;20408;-83
2023/06/29 05:49:35;;;;;;;0.90;0.30;;;;;;;24.77;100.00;99953.97;7393857;19;20633;-82
2023/06/29 05:52:01;;;;;;;1.75;0.85;;;;;;;24.26;100.00;99944.81;7394123;19;20011;-82
2023/06/29 05:54:28;;;;;;;0.45;0.22;;;;;;;22.89;100.00;99959.88;7392845;19;20014;-82
2023/06/29 05:56:54;;;;;;;2.28;0.68;;;;;;;24.42;100.00;99952.81;7396228;19;20045;-82
2023/06/29 05:59:20;;;;;;;3.00;0.47;;;;;;;22.71;100.00;99960.88;7392348;19;20391;-82
2023/06/29 06:01:46;;;;;;;5.68;0.65;;;;;;;21.08;100.00;99965.22;7395375;19;20010;-82
2023/06/29 06:04:12;;;;;;;4.90;0.52;;;;;;;20.75;100.00;99960.16;7396493;19;20023;-82
2023/06/29 06:06:39;;;;;;;0.93;0.38;;;;;;;19.25;100.00;99961.72;7395580;19;20512;-83
2023/06/29 06:09:06;;;;;;;0.30;0.20;;;;;;;20.12;100.00;99954.59;7392929;19;20014;-82
2023/06/29 06:11:32;;;;;;;1.70;0.47;;;;;;;19.34;100.00;99952.91;7391805;19;20011;-83
2023/06/29 06:13:58;;;;;;;1.80;0.40;;;;;;;19.33;100.00;99950.59;7392078;19;20026;-82
2023/06/29 06:16:24;;;;;;;1.50;0.13;;;;;;;19.18;100.00;99959.53;7395033;19;20086;-82
2023/06/29 06:18:50;;;;;;;1.02;0.50;;;;;;;19.10;100.00;99946.56;7390911;19;20022;-82
2023/06/29 06:21:17;;;;;;;1.25;0.30;;;;;;;18.97;100.00;99952.09;7392739;19;20021;-82
2023/06/29 06:23:43;;;;;;;3.92;0.77;;;;;;;18.76;100.00;99963.88;7391810;19;20015;-83
2023/06/29 06:26:09;;;;;;;0.95;0.30;;;;;;;19.93;100.00;99965.16;7390811;19;20018;-82
2023/06/29 06:28:35;;;;;;;15.18;0.95;;;;;;;23.43;100.00;99956.78;7394684;19;20026;-82
2023/06/29 06:31:01;;;;;;;1.35;0.77;;;;;;;20.28;100.00;99962.06;7392257;19;20635;-83
2023/06/29 06:33:30;;;;;;;1.45;0.70;;;;;;;19.21;100.00;99963.34;7391683;19;20028;-85
2023/06/29 06:35:57;;;;;;;0.57;0.50;;;;;;;19.10;100.00;99967.06;7393576;19;20026;-85
2023/06/29 06:38:24;;;;;;;0.68;0.45;;;;;;;18.69;100.00;99975.00;7392238;19;20025;-84
2023/06/29 06:40:51;;;;;;;0.52;0.25;;;;;;;22.94;100.00;99962.56;7391643;19;20011;-85
2023/06/29 06:43:17;;;;;;;1.05;0.22;;;;;;;21.70;100.00;99973.16;7394241;19;20031;-85
2023/06/29 06:45:44;;;;;;;1.95;0.57;;;;;;;23.30;100.00;99966.16;7391769;19;20018;-85
2023/06/29 06:48:10;;;;;;;1.35;0.60;;;;;;;23.01;100.00;99978.13;7391555;19;20381;-85
2023/06/29 06:50:37;;;;;;;1.45;0.55;;;;;;;20.18;100.00;99981.47;7392249;19;20031;-84
2023/06/29 06:53:03;;;;;;;0.30;0.15;;;;;;;22.99;100.00;99977.94;7393777;19;20018;-85
2023/06/29 06:55:29;;;;;;;0.45;0.20;;;;;;;22.18;100.00;99975.38;7392831;19;20026;-85
2023/06/29 06:57:55;;;;;;;3.80;0.40;;;;;;;19.75;100.00;99969.53;7391637;19;20007;-86
2023/06/29 07:00:22;;;;;;;0.63;0.30;;;;;;;21.30;100.00;99968.88;7390386;19;20402;-86
2023/06/29 07:02:48;;;;;;;0.10;0.10;;;;;;;22.46;100.00;99975.44;7391511;19;20014;-84
2023/06/29 07:05:14;;;;;;;3.80;0.20;;;;;;;22.65;100.00;99969.56;7389587;19;20022;-85
2023/06/29 07:07:41;;;;;;;2.08;0.30;;;;;;;23.12;100.00;99974.97;7393549;19;20377;-83
2023/06/29 07:10:07;;;;;;;2.40;1.20;;;;;;;19.37;100.00;99982.16;7392330;19;20058;-83
2023/06/29 07:12:33;;;;;;;8.52;0.63;;;;;;;21.18;100.00;99978.94;7391511;19;20470;-84
2023/06/29 07:14:59;;;;;;;1.65;0.45;;;;;;;21.28;100.00;99977.94;7392727;19;20040;-84
2023/06/29 07:17:27;;;;;;;4.88;0.55;;;;;;;21.05;100.00;99983.28;7389156;19;20018;-83
2023/06/29 07:19:53;;;;;;;0.10;0.10;;;;;;;21.36;100.00;99975.97;7388173;19;20474;-84
2023/06/29 07:22:20;;;;;;;3.42;0.22;;;;;;;20.69;100.00;99982.16;7390481;19;20096;-84
2023/06/29 07:24:46;;;;;;;1.30;0.57;;;;;;;20.01;100.00;99978.13;7388202;19;20022;-84
2023/06/29 07:27:12;;;;;;;0.32;0.30;;;;;;;20.67;100.00;99986.81;7391271;19;20552;-84
2023/06/29 07:29:42;;;;;;;0.20;0.10;;;;;;;20.70;100.00;99992.19;7392766;19;20022;-84
2023/06/29 07:32:11;;;;;;;0.47;0.20;;;;;;;17.74;100.00;100000.31;7389842;19;20253;-84
2023/06/29 07:34:37;;;;;;;2.60;0.28;;;;;;;23.19;100.00;99994.16;7391694;19;20077;-84
2023/06/29 07:37:03;;;;;;;0.10;0.10;;;;;;;24.42;100.00;99994.75;7388069;19;20018;-83
2023/06/29 07:39:30;;;;;;;0.98;0.55;;;;;;;23.31;100.00;99992.50;7387448;19;20353;-84
2023/06/29 07:41:56;;;;;;;0.30;0.10;;;;;;;23.62;100.00;99996.25;7392083;19;20461;-83
2023/06/29 07:44:22;;;;;;;2.30;0.20;;;;;;;24.21;100.00;99988.47;7391557;19;20096;-82
2023/06/29 07:46:48;;;;;;;0.30;0.30;;;;;;;18.73;100.00;100009.31;7388201;19;20021;-85
2023/06/29 07:49:15;;;;;;;1.15;0.47;;;;;;;23.24;100.00;100002.50;7390017;19;20018;-83
2023/06/29 07:51:41;;;;;;;0.10;0.10;;;;;;;24.62;100.00;99999.53;7390088;19;20018;-84
2023/06/29 07:54:08;;;;;;;2.40;0.20;;;;;;;24.40;100.00;99994.56;7391122;19;20014;-83
2023/06/29 07:56:34;;;;;;;0.30;0.15;;;;;;;24.55;100.00;99998.19;7388015;19;20025;-83
2023/06/29 07:59:00;;;;;;;0.10;0.10;;;;;;;23.04;100.00;100003.31;7387977;19;20025;-84
2023/06/29 08:01:26;;;;;;;0.52;0.17;;;;;;;22.11;100.00;100000.84;7387441;19;20021;-83
2023/06/29 08:03:53;;;;;;;0.50;0.20;;;;;;;20.98;100.00;100000.16;7386685;19;20022;-83
2023/06/29 08:06:19;;;;;;;0.00;0.00;;;;;;;19.66;100.00;99998.97;7389747;19;20021;-83
2023/06/29 08:08:45;;;;;;;0.13;0.10;;;;;;;19.43;100.00;99997.75;7388034;19;20015;-82
2023/06/29 08:11:13;;;;;;;0.10;0.10;;;;;;;19.51;100.00;99995.81;7390473;19;20021;-82
2023/06/29 08:13:40;;;;;;;0.10;0.10;;;;;;;20.07;100.00;100000.69;7390351;19;20019;-81
2023/06/29 08:16:07;;;;;;;0.52;0.35;;;;;;;24.47;100.00;100002.38;7390784;19;20022;-82
2023/06/29 08:18:33;;;;;;;0.20;0.20;;;;;;;19.38;100.00;100006.28;7389456;19;20400;-82
2023/06/29 08:20:59;;;;;;;0.38;0.00;;;;;;;17.34;100.00;100012.28;7389322;19;20022;-82
2023/06/29 08:23:25;;;;;;;3.83;0.25;;;;;;;17.15;100.00;100020.53;7386613;19;20017;-82
2023/06/29 08:25:52;;;;;;;0.52;0.30;;;;;;;17.17;100.00;100014.41;7388119;19;20371;-85
2023/06/29 08:28:18;;;;;;;0.10;0.10;;;;;;;17.01;100.00;100018.03;7389754;19;20377;-84
2023/06/29 08:30:44;;;;;;;0.20;0.10;;;;;;;17.25;100.00;100023.84;7390428;19;20058;-83
2023/06/29 08:33:10;;;;;;;0.40;0.22;;;;;;;17.39;100.00;100015.06;7388368;19;20021;-82
2023/06/29 08:35:36;;;;;;;0.10;0.10;;;;;;;17.53;100.00;100012.47;7386476;19;20082;-82
2023/06/29 08:38:02;;;;;;;4.32;0.73;;;;;;;17.88;100.00;100012.53;7389391;19;20335;-86
2023/06/29 08:40:33;;;;;;;4.68;0.47;;;;;;;18.56;100.00;100017.19;7389509;19;20047;-86
2023/06/29 08:42:59;;;;;;;0.52;0.20;;;;;;;17.80;100.00;100001.06;7392988;19;20015;-91
2023/06/29 08:45:26;;;;;;;1.42;0.08;;;;;;;17.90;100.00;100005.09;7390702;19;20023;-86
2023/06/29 08:47:53;;;;;;;0.22;0.15;;;;;;;17.86;100.00;100010.25;7389520;19;20095;-86
2023/06/29 08:50:25;;;;;;;0.10;0.00;;;;;;;19.56;100.00;99992.16;7394683;19;20018;-86
2023/06/29 08:52:52;;;;;;;0.55;0.40;;;;;;;19.06;100.00;99991.25;7394904;19;20010;-86
2023/06/29 08:55:19;;;;;;;2.35;0.10;;;;;;;18.58;100.00;99986.38;7398820;19;20018;-86
2023/06/29 08:57:46;;;;;;;0.43;0.10;;;;;;;18.63;100.00;99991.19;7395556;19;20014;-86
2023/06/29 09:00:13;;;;;;;2.42;0.17;;;;;;;18.57;100.00;99996.13;7393880;19;20015;-87
2023/06/29 09:02:39;;;;;;;0.55;0.10;;;;;;;19.38;100.00;99990.09;7393694;19;20014;-86
2023/06/29 09:05:06;;;;;;;0.95;0.20;;;;;;;23.07;100.00;99993.69;7394157;19;20032;-86
2023/06/29 09:07:33;;;;;;;1.67;0.17;;;;;;;24.36;100.00;99991.34;7399778;19;20485;-83
2023/06/29 09:10:00;;;;;;;0.25;0.08;;;;;;;24.33;100.00;99992.47;7396405;19;20010;-83
2023/06/29 09:12:29;;;;;;;0.90;0.10;;;;;;;24.43;100.00;99994.19;7394708;19;20334;-84
2023/06/29 09:14:57;;;;;;;0.75;0.25;;;;;;;24.51;100.00;99994.97;7395790;19;20022;-83
2023/06/29 09:17:23;;;;;;;6.03;0.30;;;;;;;24.63;100.00;99992.47;7391621;19;20015;-84
2023/06/29 09:19:56;;;;;;;0.10;0.10;;;;;;;24.69;100.00;99999.50;7396632;19;20010;-84
2023/06/29 09:22:27;;;;;;;0.20;0.20;;;;;;;24.36;100.00;100002.72;7391800;19;20021;-81
2023/06/29 09:24:57;;;;;;;0.10;0.10;;;;;;;24.16;100.00;100000.81;7392483;19;20025;-81
2023/06/29 09:27:26;;;;;;;0.73;0.10;;;;;;;24.57;100.00;99991.91;7393988;19;20630;-80
2023/06/29 09:29:53;;;;;;;0.32;0.10;;;;;;;24.81;100.00;99994.22;7393872;19;20018;-79
2023/06/29 09:32:19;;;;;;;1.08;0.10;;;;;;;24.97;100.00;99992.09;7396040;19;20018;-81
2023/06/29 09:34:48;;;;;;;0.38;0.03;;;;;;;24.36;100.00;99991.34;7392906;19;20074;-80
2023/06/29 09:37:17;;;;;;;0.47;0.47;;;;;;;25.31;100.00;99990.31;7396897;19;20011;-81
2023/06/29 09:40:12;;;;;;;1.80;1.00;;;;;;;25.72;100.00;99988.25;7392783;19;20035;-81
2023/06/29 09:42:39;;;;;;;3.85;0.35;;;;;;;25.92;99.33;99990.81;7396193;19;20018;-81
2023/06/29 09:45:11;;;;;;;0.35;0.05;;;;;;;26.06;99.94;99988.44;7393362;19;20031;-81
2023/06/29 09:47:40;;;;;;;3.70;0.20;;;;;;;26.05;97.95;99990.53;7393048;19;20475;-82
2023/06/29 09:50:18;;;;;;;0.75;0.13;;;;;;;26.06;97.72;99994.91;7395035;19;20022;-83
2023/06/29 09:52:46;;;;;;;0.80;0.10;;;;;;;25.29;100.00;99987.28;7395414;19;20410;-82
2023/06/29 09:55:14;;;;;;;0.40;0.10;;;;;;;25.66;93.28;99996.28;7392920;19;20022;-83
2023/06/29 09:57:50;;;;;;;1.33;0.20;;;;;;;25.57;95.54;99989.09;7393234;19;20018;-81
2023/06/29 10:00:17;;;;;;;5.28;0.28;;;;;;;22.65;100.00;100000.81;7392579;19;20030;-81
2023/06/29 10:02:43;;;;;;;2.10;0.20;;;;;;;23.37;100.00;100001.66;7389167;19;20011;-83
2023/06/29 10:05:10;;;;;;;0.68;0.10;;;;;;;21.94;100.00;99998.38;7392707;19;20354;-82
2023/06/29 10:07:37;;;;;;;0.50;0.10;;;;;;;23.98;100.00;99994.09;7394935;19;20477;-82
2023/06/29 10:10:05;;;;;;;0.30;0.30;;;;;;;24.37;100.00;99998.53;7394566;19;20018;-82
2023/06/29 10:12:32;;;;;;;0.10;0.10;;;;;;;25.62;92.04;100001.63;7398460;19;20011;-83
2023/06/29 10:15:08;;;;;;;0.10;0.10;;;;;;;25.66;92.38;100005.59;7392621;19;20385;-81
2023/06/29 10:18:14;;;;;;;3.85;0.10;;;;;;;20.13;100.00;100007.78;7389146;19;20061;-81
2023/06/29 10:20:46;;;;;;;0.28;0.00;;;;;;;18.86;100.00;100018.66;7389289;19;20021;-81
2023/06/29 10:23:15;;;;;;;5.07;0.10;;;;;;;18.40;100.00;100016.00;7390519;19;20033;-80
2023/06/29 10:25:45;;;;;;;0.20;0.10;;;;;;;18.13;100.00;100009.28;7390686;19;20029;-80
2023/06/29 10:28:12;;;;;;;1.83;0.23;;;;;;;18.31;100.00;100012.72;7392787;19;20018;-81
2023/06/29 10:30:50;;;;;;;0.10;0.10;;;;;;;18.56;100.00;100006.63;7393412;19;20036;-80
2023/06/29 10:33:23;;;;;;;1.75;0.20;;;;;;;22.79;100.00;100009.97;7392167;19;20022;-81
2023/06/29 10:35:51;;;;;;;6.22;0.17;;;;;;;20.65;100.00;100007.19;7391388;19;20018;-81
2023/06/29 10:38:17;;;;;;;0.20;0.20;;;;;;;19.49;100.00;100012.53;7390424;19;20015;-80
2023/06/29 10:40:47;;;;;;;0.10;0.00;;;;;;;19.06;100.00;100017.41;7391748;19;20018;-81
2023/06/29 10:43:14;;;;;;;0.10;0.10;;;;;;;18.66;100.00;100018.34;7395614;19;20367;-83
2023/06/29 10:45:41;;;;;;;0.10;0.00;;;;;;;18.71;100.00;100011.91;7392452;19;20015;-82
2023/06/29 10:48:09;;;;;;;9.38;0.30;;;;;;;19.10;100.00;100008.66;7392173;19;20462;-81
2023/06/29 10:50:38;;;;;;;1.38;0.20;;;;;;;20.54;100.00;100001.72;7394417;19;20011;-81
2023/06/29 10:53:07;;;;;;;1.98;0.10;;;;;;;22.92;100.00;99998.50;7391134;19;20014;-81
2023/06/29 10:55:43;;;;;;;1.55;0.20;;;;;;;20.47;100.00;100010.84;7391453;19;20014;-83
2023/06/29 10:58:40;;;;;;;0.75;0.17;;;;;;;23.62;100.00;100007.66;7390698;19;20006;-83
2023/06/29 11:01:06;;;;;;;2.78;0.32;;;;;;;20.95;100.00;100002.00;7390571;19;20019;-84
2023/06/29 11:03:32;;;;;;;4.05;0.20;;;;;;;21.29;100.00;100007.03;7391813;19;20014;-83
2023/06/29 11:06:01;;;;;;;1.42;0.20;;;;;;;20.76;100.00;100012.66;7389506;19;20014;-82
2023/06/29 11:08:30;;;;;;;0.10;0.00;;;;;;;23.31;100.00;100012.38;7391380;19;20073;-83
2023/06/29 11:11:13;;;;;;;0.30;0.10;;;;;;;21.33;100.00;100013.13;7391714;19;20014;-83
2023/06/29 11:13:39;;;;;;;2.75;0.17;;;;;;;25.08;98.05;100006.69;7391037;19;20414;-83
2023/06/29 11:16:05;;;;;;;0.30;0.10;;;;;;;24.78;96.40;100006.75;7393085;19;20377;-82
2023/06/29 11:18:31;;;;;;;0.85;0.20;;;;;;;21.73;100.00;100009.66;7390770;19;20014;-84
2023/06/29 11:21:00;;;;;;;0.00;0.00;;;;;;;26.52;85.64;100003.19;7392659;19;20014;-83
2023/06/29 11:23:26;;;;;;;0.38;0.10;;;;;;;24.68;81.50;99998.00;7390005;19;20031;-81
2023/06/29 11:25:52;;;;;;;0.25;0.00;;;;;;;27.72;72.39;99992.63;7389800;19;20523;-80